»·PEaware :: NAV1706 L88-L45

NAV1706 :: L88-L45

FLIGHT INFORMATION

Flight Status: Arrived
Operator: Unknown
More flights by this operator :: More flights under this callsign
Pilot: Joost B. (14393)
Aircraft: CESSNA 172 SKYHAWK
(C172)
More flights by this aircraft type
Origin: L88 New Cuyama
United States
Destination: L45 Bakersfield Mun
United States
More flights between these airports :: More routes between these airports
Route:
File this flight plan on PilotEdge
Remarks:
Altitude:
(Current/Filed)
5,500ft
Speed:
(Current/Filed)
0kts
Departed: 19-May-17 11:41 AM
Arrived: 19-May-17 12:12 PM
Distance/Time
Traveled:
41nm/0:30
Distance/Time
To Go:
Arrived

Flight Plot

Page will automatically refresh every two minutes.

Flight plan parsing failed; only flown route is shown


Map Options




Map Legend


Flown Route
Filed Route
Departure Airport
Arrival Airport
Navaid (VOR, NDB)
Fix

Horizontal Profiles

Position Reports

Time Latitude Longitude Heading Altitude Ground
Speed
19-May-17 11:24 34.943920 -119.690791 203 2206ft 0kts
19-May-17 11:25 34.943920 -119.690791 203 2206ft 0kts
19-May-17 11:26 34.943920 -119.690791 203 2206ft 0kts
19-May-17 11:27 34.943920 -119.690791 203 2206ft 0kts
19-May-17 11:28 34.943920 -119.690791 203 2206ft 0kts
19-May-17 11:29 34.943920 -119.690791 203 2206ft 0kts
19-May-17 11:30 34.943920 -119.690791 203 2206ft 0kts
19-May-17 11:31 34.943920 -119.690791 203 2206ft 0kts
19-May-17 11:32 34.943920 -119.690791 203 2206ft 0kts
19-May-17 11:33 34.943920 -119.690791 203 2206ft 0kts
19-May-17 11:34 34.943920 -119.690791 203 2206ft 0kts
19-May-17 11:35 34.943920 -119.690791 203 2206ft 0kts
19-May-17 11:36 34.943920 -119.690791 203 2206ft 0kts
19-May-17 11:37 34.943920 -119.690791 203 2206ft 0kts
19-May-17 11:38 34.943920 -119.690791 203 2206ft 0kts
19-May-17 11:39 34.942615 -119.691102 131 2206ft 6kts
19-May-17 11:40 34.942261 -119.690545 232 2206ft 0kts
19-May-17 11:41 34.942261 -119.690545 232 2206ft 0kts
19-May-17 11:42 34.942224 -119.690689 278 2206ft 5kts
19-May-17 11:43 34.941037 -119.688224 118 2206ft 70kts
19-May-17 11:44 34.930250 -119.665257 194 3097ft 72kts
19-May-17 11:45 34.928891 -119.683748 283 3982ft 76kts
19-May-17 11:46 34.941781 -119.704773 347 4800ft 96kts
19-May-17 11:47 34.963611 -119.683872 42 5661ft 99kts
19-May-17 11:48 34.980500 -119.659218 47 6466ft 94kts
19-May-17 11:49 34.994927 -119.632855 36 7155ft 94kts
19-May-17 11:50 35.015261 -119.612596 36 7489ft 102kts
19-May-17 11:51 35.037158 -119.588708 39 7507ft 107kts
19-May-17 11:52 35.057826 -119.562123 42 7523ft 108kts
19-May-17 11:53 35.078211 -119.534967 42 7533ft 110kts
19-May-17 11:54 35.098468 -119.506990 44 7530ft 111kts
19-May-17 11:55 35.116034 -119.480455 57 7566ft 111kts
19-May-17 11:56 35.126927 -119.444472 63 7582ft 113kts
19-May-17 11:57 35.140289 -119.410383 57 7613ft 112kts
19-May-17 11:58 35.155865 -119.377796 56 7416ft 111kts
19-May-17 11:59 35.169780 -119.344677 59 7048ft 111kts
19-May-17 12:00 35.182025 -119.310406 67 6345ft 113kts
19-May-17 12:01 35.188934 -119.273577 83 5651ft 114kts
19-May-17 12:02 35.186280 -119.237901 100 5020ft 114kts
19-May-17 12:03 35.174157 -119.202164 98 4327ft 114kts
19-May-17 12:04 35.181883 -119.167231 61 3673ft 107kts
19-May-17 12:05 35.200967 -119.141060 41 3003ft 109kts
19-May-17 12:06 35.217944 -119.113545 59 2422ft 111kts
19-May-17 12:07 35.232928 -119.083601 53 2136ft 105kts
19-May-17 12:08 35.250117 -119.055228 45 2199ft 104kts
19-May-17 12:09 35.273607 -119.041447 359 2277ft 96kts
19-May-17 12:10 35.300133 -119.042411 356 2041ft 97kts
19-May-17 12:11 35.326067 -119.039484 18 1687ft 100kts
19-May-17 12:12 35.330045 -119.008433 147 1052ft 96kts
19-May-17 12:13 35.309142 -119.001765 104 722ft 81kts
19-May-17 12:14 35.323410 -118.995835 355 378ft 37kts
19-May-17 12:15 35.324854 -118.996517 260 378ft 0kts
19-May-17 12:16 35.326530 -118.997175 0 378ft 0kts
19-May-17 12:17 35.326530 -118.997175 0 378ft 0kts

Navigation Log

Ident Type
Flight plan parsing failed, navigation log unavailable